^^
Station Historical Data
Daily Summary for February 10, 2018 Units:  Both    English   Metric
« Previous Day
Next Day »
Daily Weekly Monthly Yearly Custom
  High: Low: Average:
Temperature: TemperatureF °F /  -17.8 °C 60.4 °F /  15.8 °C 66 °F /  18.9 °C
Dew Point: DewpointF °F /  -17.8 °C 52.3 °F /  11.3 °C 58.2 °F /  14.6 °C
Humidity: Humidity% 37% 79%
Wind Speed: WindSpeedMPHmph /  0km/h - 1.3mph /  2.1km/h
Wind Gust: WindSpeedGustMPHmph /  0km/h - -
Wind- - ESE
Pressure: PressureIn in /  0 hPa 29.64 in /  1003.6 hPa -
Precipitation: 0.33 in /  8.38 mm    
Historical Graphs
 
 
Tabular Data for February 10, 2018
Time Temperature Dew Point Pressure Wind Wind Speed Wind Gust Humidity Rainfall Rate (Hourly) solar Conditions
TemperatureF °F /  -17.8 °C DewpointF °F /  -17.8 °C PressureInin /  0hPa Calm     Humidity% HourlyPrecipInin /  0mm SolarRadiationWatts/m^2 W/m2 Conditions
00:02 60.6 °F /  15.9 °C 58.6 °F /  14.8 °C 29.72in /  1006.3hPa Calm     93% 0.00in /  0mm 0.0 W/m2
00:08 60.6 °F /  15.9 °C 58.6 °F /  14.8 °C 29.72in /  1006.3hPa Calm   1.0mph /  1.6km/h 93% 0.00in /  0mm 0.0 W/m2
00:13 60.4 °F /  15.8 °C 58.1 °F /  14.5 °C 29.72in /  1006.3hPa Calm   1.0mph /  1.6km/h 92% 0.00in /  0mm 0.0 W/m2
00:18 60.4 °F /  15.8 °C 58.1 °F /  14.5 °C 29.72in /  1006.3hPa Calm     92% 0.00in /  0mm 0.0 W/m2
00:23 60.4 °F /  15.8 °C 58.1 °F /  14.5 °C 29.72in /  1006.3hPa Calm   2.0mph /  3.2km/h 92% 0.00in /  0mm 0.0 W/m2
00:28 60.4 °F /  15.8 °C 58.1 °F /  14.5 °C 29.71in /  1006hPa Calm   1.0mph /  1.6km/h 92% 0.00in /  0mm 0.0 W/m2
00:33 60.4 °F /  15.8 °C 58.1 °F /  14.5 °C 29.72in /  1006.3hPa Calm     92% 0.00in /  0mm 0.0 W/m2
00:38 60.4 °F /  15.8 °C 58.1 °F /  14.5 °C 29.72in /  1006.3hPa Calm   1.0mph /  1.6km/h 92% 0.00in /  0mm 0.0 W/m2
00:43 60.4 °F /  15.8 °C 58.1 °F /  14.5 °C 29.72in /  1006.3hPa Calm     92% 0.00in /  0mm 0.0 W/m2
00:48 60.4 °F /  15.8 °C 58.1 °F /  14.5 °C 29.71in /  1006hPa Calm     92% 0.00in /  0mm 0.0 W/m2
00:54 60.4 °F /  15.8 °C 58.1 °F /  14.5 °C 29.72in /  1006.3hPa Calm   1.0mph /  1.6km/h 92% 0.00in /  0mm 0.0 W/m2
00:59 60.4 °F /  15.8 °C 58.1 °F /  14.5 °C 29.71in /  1006hPa Calm   2.0mph /  3.2km/h 92% 0.00in /  0mm 0.0 W/m2
01:04 60.6 °F /  15.9 °C 58.3 °F /  14.6 °C 29.71in /  1006hPa Calm     92% 0.00in /  0mm 0.0 W/m2
01:09 60.6 °F /  15.9 °C 58.3 °F /  14.6 °C 29.71in /  1006hPa Calm     92% 0.00in /  0mm 0.0 W/m2
01:14 60.4 °F /  15.8 °C 58.1 °F /  14.5 °C 29.71in /  1006hPa Calm     92% 0.00in /  0mm 0.0 W/m2
01:19 60.4 °F /  15.8 °C 58.1 °F /  14.5 °C 29.71in /  1006hPa Calm     92% 0.00in /  0mm 0.0 W/m2
01:24 60.4 °F /  15.8 °C 58.1 °F /  14.5 °C 29.71in /  1006hPa Calm     92% 0.00in /  0mm 0.0 W/m2
01:29 60.4 °F /  15.8 °C 58.1 °F /  14.5 °C 29.71in /  1006hPa Calm     92% 0.00in /  0mm 0.0 W/m2
01:34 60.4 °F /  15.8 °C 58.1 °F /  14.5 °C 29.71in /  1006hPa Calm     92% 0.00in /  0mm 0.0 W/m2
01:40 60.4 °F /  15.8 °C 58.1 °F /  14.5 °C 29.71in /  1006hPa Calm     92% 0.00in /  0mm 0.0 W/m2
01:45 60.4 °F /  15.8 °C 58.1 °F /  14.5 °C 29.71in /  1006hPa Calm     92% 0.00in /  0mm 0.0 W/m2
01:50 60.4 °F /  15.8 °C 58.1 °F /  14.5 °C 29.71in /  1006hPa Calm   1.0mph /  1.6km/h 92% 0.00in /  0mm 0.0 W/m2
01:55 60.4 °F /  15.8 °C 58.1 °F /  14.5 °C 29.71in /  1006hPa Calm     92% 0.00in /  0mm 0.0 W/m2
02:00 60.4 °F /  15.8 °C 58.1 °F /  14.5 °C 29.70in /  1005.6hPa Calm     92% 0.00in /  0mm 0.0 W/m2
02:05 60.4 °F /  15.8 °C 58.1 °F /  14.5 °C 29.70in /  1005.6hPa Calm   2.0mph /  3.2km/h 92% 0.00in /  0mm 0.0 W/m2
02:10 60.4 °F /  15.8 °C 58.1 °F /  14.5 °C 29.70in /  1005.6hPa Calm     92% 0.00in /  0mm 0.0 W/m2
02:15 60.4 °F /  15.8 °C 58.1 °F /  14.5 °C 29.70in /  1005.6hPa Calm     92% 0.00in /  0mm 0.0 W/m2
02:20 60.4 °F /  15.8 °C 58.1 °F /  14.5 °C 29.70in /  1005.6hPa Calm     92% 0.00in /  0mm 0.0 W/m2
02:26 60.4 °F /  15.8 °C 58.1 °F /  14.5 °C 29.70in /  1005.6hPa Calm     92% 0.00in /  0mm 0.0 W/m2
02:31 60.6 °F /  15.9 °C 58.3 °F /  14.6 °C 29.70in /  1005.6hPa Calm     92% 0.00in /  0mm 0.0 W/m2
02:36 60.6 °F /  15.9 °C 58.3 °F /  14.6 °C 29.70in /  1005.6hPa Calm     92% 0.00in /  0mm 0.0 W/m2
02:41 60.6 °F /  15.9 °C 58.6 °F /  14.8 °C 29.70in /  1005.6hPa Calm     93% 0.00in /  0mm 0.0 W/m2
02:46 60.6 °F /  15.9 °C 58.6 °F /  14.8 °C 29.69in /  1005.3hPa Calm     93% 0.00in /  0mm 0.0 W/m2
02:51 60.6 °F /  15.9 °C 58.6 °F /  14.8 °C 29.69in /  1005.3hPa Calm     93% 0.00in /  0mm 0.0 W/m2
02:56 60.8 °F /  16 °C 58.8 °F /  14.9 °C 29.69in /  1005.3hPa Calm     93% 0.00in /  0mm 0.0 W/m2
03:01 60.8 °F /  16 °C 58.8 °F /  14.9 °C 29.69in /  1005.3hPa Calm   2.0mph /  3.2km/h 93% 0.00in /  0mm 0.0 W/m2
03:07 61.0 °F /  16.1 °C 59.0 °F /  15 °C 29.69in /  1005.3hPa Calm   2.0mph /  3.2km/h 93% 0.00in /  0mm 0.0 W/m2
03:12 61.0 °F /  16.1 °C 59.0 °F /  15 °C 29.68in /  1005hPa Calm   1.0mph /  1.6km/h 93% 0.00in /  0mm 0.0 W/m2
03:17 61.0 °F /  16.1 °C 59.0 °F /  15 °C 29.68in /  1005hPa Calm   2.0mph /  3.2km/h 93% 0.00in /  0mm 0.0 W/m2
03:22 61.0 °F /  16.1 °C 59.0 °F /  15 °C 29.68in /  1005hPa SE 2.0mph /  3.2km/h 3.0mph /  4.8km/h 93% 0.00in /  0mm 0.0 W/m2
03:27 61.0 °F /  16.1 °C 59.0 °F /  15 °C 29.68in /  1005hPa Calm   1.0mph /  1.6km/h 93% 0.00in /  0mm 0.0 W/m2
03:32 60.8 °F /  16 °C 58.5 °F /  14.7 °C 29.68in /  1005hPa Calm   1.0mph /  1.6km/h 92% 0.00in /  0mm 0.0 W/m2
03:37 60.8 °F /  16 °C 58.5 °F /  14.7 °C 29.68in /  1005hPa Calm   1.0mph /  1.6km/h 92% 0.00in /  0mm 0.0 W/m2
03:43 60.6 °F /  15.9 °C 58.3 °F /  14.6 °C 29.68in /  1005hPa Calm     92% 0.00in /  0mm 0.0 W/m2
03:48 60.6 °F /  15.9 °C 58.3 °F /  14.6 °C 29.68in /  1005hPa Calm     92% 0.00in /  0mm 0.0 W/m2
03:53 60.6 °F /  15.9 °C 58.3 °F /  14.6 °C 29.68in /  1005hPa Calm   1.0mph /  1.6km/h 92% 0.00in /  0mm 0.0 W/m2
03:58 60.8 °F /  16 °C 58.5 °F /  14.7 °C 29.69in /  1005.3hPa Calm   2.0mph /  3.2km/h 92% 0.00in /  0mm 0.0 W/m2
04:03 61.0 °F /  16.1 °C 58.6 °F /  14.8 °C 29.69in /  1005.3hPa Calm   4.0mph /  6.4km/h 92% 0.00in /  0mm 0.0 W/m2
04:08 61.0 °F /  16.1 °C 58.3 °F /  14.6 °C 29.68in /  1005hPa Calm   3.0mph /  4.8km/h 91% 0.00in /  0mm 0.0 W/m2
04:13 61.0 °F /  16.1 °C 58.3 °F /  14.6 °C 29.68in /  1005hPa SSE 2.9mph /  4.7km/h 5.0mph /  8km/h 91% 0.00in /  0mm 0.0 W/m2
04:18 61.0 °F /  16.1 °C 58.1 °F /  14.5 °C 29.68in /  1005hPa Calm     90% 0.00in /  0mm 0.0 W/m2
04:23 61.2 °F /  16.2 °C 58.3 °F /  14.6 °C 29.68in /  1005hPa Calm     90% 0.00in /  0mm 0.0 W/m2
04:29 61.2 °F /  16.2 °C 58.5 °F /  14.7 °C 29.68in /  1005hPa Calm     91% 0.00in /  0mm 0.0 W/m2
04:34 61.2 °F /  16.2 °C 58.5 °F /  14.7 °C 29.67in /  1004.6hPa Calm     91% 0.00in /  0mm 0.0 W/m2
04:39 61.2 °F /  16.2 °C 58.5 °F /  14.7 °C 29.67in /  1004.6hPa Calm     91% 0.00in /  0mm 0.0 W/m2
04:44 61.2 °F /  16.2 °C 57.9 °F /  14.4 °C 29.67in /  1004.6hPa Calm   4.0mph /  6.4km/h 89% 0.00in /  0mm 0.0 W/m2
04:49 61.3 °F /  16.3 °C 57.7 °F /  14.3 °C 29.68in /  1005hPa Calm   1.0mph /  1.6km/h 88% 0.00in /  0mm 0.0 W/m2
04:54 61.5 °F /  16.4 °C 57.6 °F /  14.2 °C 29.68in /  1005hPa SSE 2.9mph /  4.7km/h 5.0mph /  8km/h 87% 0.00in /  0mm 0.0 W/m2
04:59 61.9 °F /  16.6 °C 57.9 °F /  14.4 °C 29.68in /  1005hPa South 0.9mph /  1.4km/h 3.0mph /  4.8km/h 87% 0.00in /  0mm 0.0 W/m2
05:04 61.9 °F /  16.6 °C 57.9 °F /  14.4 °C 29.69in /  1005.3hPa SSE 0.9mph /  1.4km/h 2.0mph /  3.2km/h 87% 0.00in /  0mm 0.0 W/m2
05:10 61.9 °F /  16.6 °C 57.9 °F /  14.4 °C 29.68in /  1005hPa Calm   1.0mph /  1.6km/h 87% 0.00in /  0mm 0.0 W/m2
05:15 61.9 °F /  16.6 °C 57.9 °F /  14.4 °C 29.69in /  1005.3hPa Calm   1.0mph /  1.6km/h 87% 0.00in /  0mm 0.0 W/m2
05:20 61.9 °F /  16.6 °C 57.9 °F /  14.4 °C 29.69in /  1005.3hPa East 2.0mph /  3.2km/h 4.0mph /  6.4km/h 87% 0.00in /  0mm 0.0 W/m2
05:25 62.1 °F /  16.7 °C 58.1 °F /  14.5 °C 29.69in /  1005.3hPa Calm   3.0mph /  4.8km/h 87% 0.00in /  0mm 0.0 W/m2
05:30 62.1 °F /  16.7 °C 58.1 °F /  14.5 °C 29.69in /  1005.3hPa Calm   4.0mph /  6.4km/h 87% 0.00in /  0mm 0.0 W/m2
05:35 62.1 °F /  16.7 °C 57.7 °F /  14.3 °C 29.69in /  1005.3hPa ESE 4.0mph /  6.4km/h 7.0mph /  11.3km/h 86% 0.00in /  0mm 0.0 W/m2
05:40 62.1 °F /  16.7 °C 57.2 °F /  14 °C 29.69in /  1005.3hPa SSE 4.9mph /  7.9km/h 5.0mph /  8km/h 84% 0.00in /  0mm 0.0 W/m2
05:45 62.1 °F /  16.7 °C 56.8 °F /  13.8 °C 29.69in /  1005.3hPa ESE 0.9mph /  1.4km/h 3.0mph /  4.8km/h 83% 0.00in /  0mm 0.0 W/m2
05:50 62.1 °F /  16.7 °C 56.5 °F /  13.6 °C 29.68in /  1005hPa ESE 0.9mph /  1.4km/h 6.0mph /  9.7km/h 82% 0.00in /  0mm 0.0 W/m2
05:56 62.2 °F /  16.8 °C 57.0 °F /  13.9 °C 29.69in /  1005.3hPa SE 2.0mph /  3.2km/h 6.0mph /  9.7km/h 83% 0.00in /  0mm 0.0 W/m2
06:01 62.2 °F /  16.8 °C 56.7 °F /  13.7 °C 29.68in /  1005hPa Calm   3.0mph /  4.8km/h 82% 0.00in /  0mm 0.0 W/m2
06:06 62.2 °F /  16.8 °C 57.0 °F /  13.9 °C 29.69in /  1005.3hPa Calm   5.0mph /  8km/h 83% 0.00in /  0mm 0.0 W/m2
06:11 62.2 °F /  16.8 °C 57.0 °F /  13.9 °C 29.69in /  1005.3hPa Calm   5.0mph /  8km/h 83% 0.00in /  0mm 0.0 W/m2
06:16 62.2 °F /  16.8 °C 57.4 °F /  14.1 °C 29.69in /  1005.3hPa ESE 2.0mph /  3.2km/h 3.0mph /  4.8km/h 84% 0.00in /  0mm 0.0 W/m2
06:21 62.2 °F /  16.8 °C 57.4 °F /  14.1 °C 29.69in /  1005.3hPa East 0.9mph /  1.4km/h 1.0mph /  1.6km/h 84% 0.00in /  0mm 0.0 W/m2
06:26 62.2 °F /  16.8 °C 57.4 °F /  14.1 °C 29.69in /  1005.3hPa Calm   3.0mph /  4.8km/h 84% 0.00in /  0mm 0.0 W/m2
06:31 62.2 °F /  16.8 °C 57.7 °F /  14.3 °C 29.70in /  1005.6hPa East 0.9mph /  1.4km/h 5.0mph /  8km/h 85% 0.00in /  0mm 0.0 W/m2
06:36 62.1 °F /  16.7 °C 57.6 °F /  14.2 °C 29.70in /  1005.6hPa ENE 0.9mph /  1.4km/h 3.0mph /  4.8km/h 85% 0.00in /  0mm 0.0 W/m2
06:41 62.1 °F /  16.7 °C 57.7 °F /  14.3 °C 29.70in /  1005.6hPa East 0.9mph /  1.4km/h 4.0mph /  6.4km/h 86% 0.00in /  0mm 5.0 W/m2
06:47 61.9 °F /  16.6 °C 57.6 °F /  14.2 °C 29.70in /  1005.6hPa Calm   2.0mph /  3.2km/h 86% 0.00in /  0mm 11.0 W/m2
06:52 61.9 °F /  16.6 °C 57.9 °F /  14.4 °C 29.70in /  1005.6hPa Calm   2.0mph /  3.2km/h 87% 0.00in /  0mm 18.0 W/m2
06:57 61.9 °F /  16.6 °C 57.9 °F /  14.4 °C 29.70in /  1005.6hPa Calm   2.0mph /  3.2km/h 87% 0.00in /  0mm 25.0 W/m2
07:02 61.9 °F /  16.6 °C 57.9 °F /  14.4 °C 29.70in /  1005.6hPa Calm   1.0mph /  1.6km/h 87% 0.00in /  0mm 32.0 W/m2
07:07 61.9 °F /  16.6 °C 58.3 °F /  14.6 °C 29.70in /  1005.6hPa Calm   4.0mph /  6.4km/h 88% 0.00in /  0mm 37.0 W/m2
07:12 61.9 °F /  16.6 °C 58.3 °F /  14.6 °C 29.70in /  1005.6hPa SE 6.0mph /  9.7km/h 6.0mph /  9.7km/h 88% 0.00in /  0mm 47.0 W/m2
07:17 62.1 °F /  16.7 °C 58.5 °F /  14.7 °C 29.70in /  1005.6hPa Calm   7.0mph /  11.3km/h 88% 0.00in /  0mm 58.0 W/m2
07:22 62.2 °F /  16.8 °C 58.3 °F /  14.6 °C 29.71in /  1006hPa ENE 4.9mph /  7.9km/h 5.0mph /  8km/h 87% 0.00in /  0mm 69.0 W/m2
07:27 62.4 °F /  16.9 °C 58.1 °F /  14.5 °C 29.71in /  1006hPa Calm   2.0mph /  3.2km/h 86% 0.00in /  0mm 72.0 W/m2
07:32 62.8 °F /  17.1 °C 58.5 °F /  14.7 °C 29.71in /  1006hPa SE 2.9mph /  4.7km/h 3.0mph /  4.8km/h 86% 0.00in /  0mm 81.0 W/m2
07:37 63.1 °F /  17.3 °C 58.6 °F /  14.8 °C 29.71in /  1006hPa Calm   2.0mph /  3.2km/h 85% 0.00in /  0mm 81.0 W/m2
07:43 63.7 °F /  17.6 °C 58.5 °F /  14.7 °C 29.71in /  1006hPa Calm   3.0mph /  4.8km/h 83% 0.00in /  0mm 74.0 W/m2
07:48 64.0 °F /  17.8 °C 58.1 °F /  14.5 °C 29.71in /  1006hPa SE 0.9mph /  1.4km/h 4.0mph /  6.4km/h 81% 0.00in /  0mm 72.0 W/m2
07:53 64.4 °F /  18 °C 58.1 °F /  14.5 °C 29.71in /  1006hPa Calm   1.0mph /  1.6km/h 80% 0.00in /  0mm 76.0 W/m2
07:58 64.8 °F /  18.2 °C 58.5 °F /  14.7 °C 29.72in /  1006.3hPa Calm   1.0mph /  1.6km/h 80% 0.00in /  0mm 65.0 W/m2
08:03 64.9 °F /  18.3 °C 58.3 °F /  14.6 °C 29.72in /  1006.3hPa Calm   2.0mph /  3.2km/h 79% 0.00in /  0mm 69.0 W/m2
08:08 65.3 °F /  18.5 °C 57.9 °F /  14.4 °C 29.72in /  1006.3hPa East 2.9mph /  4.7km/h 4.0mph /  6.4km/h 77% 0.00in /  0mm 86.0 W/m2
08:13 65.7 °F /  18.7 °C 57.6 °F /  14.2 °C 29.72in /  1006.3hPa Calm   1.0mph /  1.6km/h 75% 0.00in /  0mm 100.0 W/m2
08:18 66.0 °F /  18.9 °C 57.9 °F /  14.4 °C 29.72in /  1006.3hPa ENE 0.9mph /  1.4km/h 3.0mph /  4.8km/h 75% 0.00in /  0mm 121.0 W/m2
08:24 66.6 °F /  19.2 °C 58.1 °F /  14.5 °C 29.72in /  1006.3hPa Calm   3.0mph /  4.8km/h 74% 0.00in /  0mm 148.0 W/m2
08:29 67.3 °F /  19.6 °C 58.6 °F /  14.8 °C 29.72in /  1006.3hPa ESE 2.9mph /  4.7km/h 5.0mph /  8km/h 74% 0.00in /  0mm 167.0 W/m2
08:34 67.6 °F /  19.8 °C 57.6 °F /  14.2 °C 29.72in /  1006.3hPa ESE 2.0mph /  3.2km/h 4.0mph /  6.4km/h 70% 0.00in /  0mm 158.0 W/m2
08:39 67.8 °F /  19.9 °C 57.2 °F /  14 °C 29.72in /  1006.3hPa Calm   5.0mph /  8km/h 69% 0.00in /  0mm 246.0 W/m2
08:44 68.4 °F /  20.2 °C 58.3 °F /  14.6 °C 29.72in /  1006.3hPa Calm   4.0mph /  6.4km/h 70% 0.00in /  0mm 582.0 W/m2
08:49 68.7 °F /  20.4 °C 57.4 °F /  14.1 °C 29.73in /  1006.7hPa SE 0.9mph /  1.4km/h 8.0mph /  12.9km/h 67% 0.00in /  0mm 348.0 W/m2
08:54 69.3 °F /  20.7 °C 57.4 °F /  14.1 °C 29.73in /  1006.7hPa NE 2.9mph /  4.7km/h 5.0mph /  8km/h 66% 0.00in /  0mm 580.0 W/m2
09:00 70.0 °F /  21.1 °C 57.2 °F /  14 °C 29.73in /  1006.7hPa NE 2.0mph /  3.2km/h 6.0mph /  9.7km/h 64% 0.00in /  0mm 279.0 W/m2
09:05 70.3 °F /  21.3 °C 58.1 °F /  14.5 °C 29.73in /  1006.7hPa Calm   3.0mph /  4.8km/h 65% 0.00in /  0mm 188.0 W/m2
09:10 70.5 °F /  21.4 °C 57.7 °F /  14.3 °C 29.73in /  1006.7hPa SE 2.0mph /  3.2km/h 3.0mph /  4.8km/h 64% 0.00in /  0mm 329.0 W/m2
09:15 70.9 °F /  21.6 °C 58.1 °F /  14.5 °C 29.73in /  1006.7hPa East 4.0mph /  6.4km/h 5.0mph /  8km/h 64% 0.00in /  0mm 388.0 W/m2
09:20 71.2 °F /  21.8 °C 57.0 °F /  13.9 °C 29.73in /  1006.7hPa NE 2.0mph /  3.2km/h 6.0mph /  9.7km/h 61% 0.00in /  0mm 715.0 W/m2
09:25 72.1 °F /  22.3 °C 57.9 °F /  14.4 °C 29.73in /  1006.7hPa ESE 4.0mph /  6.4km/h 9.0mph /  14.5km/h 61% 0.00in /  0mm 563.0 W/m2
09:30 72.9 °F /  22.7 °C 58.1 °F /  14.5 °C 29.73in /  1006.7hPa ENE 0.9mph /  1.4km/h 5.0mph /  8km/h 60% 0.00in /  0mm 863.0 W/m2
09:35 73.4 °F /  23 °C 58.3 °F /  14.6 °C 29.74in /  1007hPa ENE 4.9mph /  7.9km/h 5.0mph /  8km/h 59% 0.00in /  0mm 364.0 W/m2
09:40 73.6 °F /  23.1 °C 57.9 °F /  14.4 °C 29.73in /  1006.7hPa SE 2.9mph /  4.7km/h 7.0mph /  11.3km/h 58% 0.00in /  0mm 420.0 W/m2
09:45 73.6 °F /  23.1 °C 57.9 °F /  14.4 °C 29.73in /  1006.7hPa Calm   8.0mph /  12.9km/h 58% 0.00in /  0mm 346.0 W/m2
09:50 73.6 °F /  23.1 °C 57.9 °F /  14.4 °C 29.73in /  1006.7hPa NE 0.9mph /  1.4km/h 7.0mph /  11.3km/h 58% 0.00in /  0mm 626.0 W/m2
09:56 73.8 °F /  23.2 °C 58.1 °F /  14.5 °C 29.74in /  1007hPa East 2.0mph /  3.2km/h 4.0mph /  6.4km/h 58% 0.00in /  0mm 353.0 W/m2
10:01 74.1 °F /  23.4 °C 57.9 °F /  14.4 °C 29.73in /  1006.7hPa Calm   2.0mph /  3.2km/h 57% 0.00in /  0mm 478.0 W/m2
10:06 74.3 °F /  23.5 °C 57.0 °F /  13.9 °C 29.73in /  1006.7hPa Calm   6.0mph /  9.7km/h 55% 0.00in /  0mm 494.0 W/m2
10:11 74.5 °F /  23.6 °C 58.3 °F /  14.6 °C 29.73in /  1006.7hPa NE 4.0mph /  6.4km/h 4.0mph /  6.4km/h 57% 0.00in /  0mm 485.0 W/m2
10:16 74.8 °F /  23.8 °C 58.1 °F /  14.5 °C 29.73in /  1006.7hPa NE 4.0mph /  6.4km/h 7.0mph /  11.3km/h 56% 0.00in /  0mm 1041.0 W/m2
10:21 75.4 °F /  24.1 °C 57.6 °F /  14.2 °C 29.73in /  1006.7hPa Calm   7.0mph /  11.3km/h 54% 0.00in /  0mm 1018.0 W/m2
10:26 75.7 °F /  24.3 °C 57.9 °F /  14.4 °C 29.73in /  1006.7hPa SE 2.9mph /  4.7km/h 4.0mph /  6.4km/h 54% 0.00in /  0mm 390.0 W/m2
10:31 75.7 °F /  24.3 °C 57.4 °F /  14.1 °C 29.73in /  1006.7hPa Calm   1.0mph /  1.6km/h 53% 0.00in /  0mm 452.0 W/m2
10:36 75.9 °F /  24.4 °C 57.0 °F /  13.9 °C 29.72in /  1006.3hPa Calm   4.0mph /  6.4km/h 52% 0.00in /  0mm 875.0 W/m2
10:42 76.5 °F /  24.7 °C 57.6 °F /  14.2 °C 29.72in /  1006.3hPa SE 4.0mph /  6.4km/h 5.0mph /  8km/h 52% 0.00in /  0mm 617.0 W/m2
10:48 77.0 °F /  25 °C 57.6 °F /  14.2 °C 29.72in /  1006.3hPa East 2.0mph /  3.2km/h 7.0mph /  11.3km/h 51% 0.00in /  0mm 817.0 W/m2
10:53 77.5 °F /  25.3 °C 56.3 °F /  13.5 °C 29.72in /  1006.3hPa East 4.0mph /  6.4km/h 4.0mph /  6.4km/h 48% 0.00in /  0mm 962.0 W/m2
10:58 78.1 °F /  25.6 °C 56.8 °F /  13.8 °C 29.72in /  1006.3hPa Calm   8.0mph /  12.9km/h 48% 0.00in /  0mm 728.0 W/m2
11:03 78.6 °F /  25.9 °C 56.1 °F /  13.4 °C 29.72in /  1006.3hPa SE 2.9mph /  4.7km/h 8.0mph /  12.9km/h 46% 0.00in /  0mm 598.0 W/m2
11:08 79.2 °F /  26.2 °C 56.7 °F /  13.7 °C 29.72in /  1006.3hPa North 6.0mph /  9.7km/h 6.0mph /  9.7km/h 46% 0.00in /  0mm 680.0 W/m2
11:13 79.3 °F /  26.3 °C 56.1 °F /  13.4 °C 29.71in /  1006hPa NNE 2.9mph /  4.7km/h 9.0mph /  14.5km/h 45% 0.00in /  0mm 1109.0 W/m2
11:18 79.3 °F /  26.3 °C 55.6 °F /  13.1 °C 29.72in /  1006.3hPa ENE 0.9mph /  1.4km/h 8.0mph /  12.9km/h 44% 0.00in /  0mm 415.0 W/m2
11:23 79.2 °F /  26.2 °C 55.9 °F /  13.3 °C 29.71in /  1006hPa ENE 4.0mph /  6.4km/h 5.0mph /  8km/h 45% 0.00in /  0mm 863.0 W/m2
11:28 79.5 °F /  26.4 °C 55.8 °F /  13.2 °C 29.71in /  1006hPa Calm   7.0mph /  11.3km/h 44% 0.00in /  0mm 863.0 W/m2
11:33 79.9 °F /  26.6 °C 53.4 °F /  11.9 °C 29.71in /  1006hPa NE 8.1mph /  13km/h 8.1mph /  13km/h 40% 0.00in /  0mm 991.0 W/m2
11:39 80.2 °F /  26.8 °C 53.8 °F /  12.1 °C 29.71in /  1006hPa ENE 2.9mph /  4.7km/h 6.0mph /  9.7km/h 40% 0.00in /  0mm 1104.0 W/m2
11:44 80.4 °F /  26.9 °C 55.9 °F /  13.3 °C 29.71in /  1006hPa East 0.9mph /  1.4km/h 6.0mph /  9.7km/h 43% 0.00in /  0mm 895.0 W/m2
11:50 81.0 °F /  27.2 °C 55.0 °F /  12.8 °C 29.71in /  1006hPa NE 2.9mph /  4.7km/h 8.0mph /  12.9km/h 41% 0.00in /  0mm 1143.0 W/m2
11:55 81.7 °F /  27.6 °C 55.0 °F /  12.8 °C 29.71in /  1006hPa North 4.0mph /  6.4km/h 5.0mph /  8km/h 40% 0.00in /  0mm 1104.0 W/m2
12:00 81.9 °F /  27.7 °C 55.2 °F /  12.9 °C 29.71in /  1006hPa ENE 4.0mph /  6.4km/h 8.0mph /  12.9km/h 40% 0.00in /  0mm 1004.0 W/m2
12:05 81.9 °F /  27.7 °C 53.8 °F /  12.1 °C 29.70in /  1005.6hPa NNE 2.9mph /  4.7km/h 10.0mph /  16.1km/h 38% 0.00in /  0mm 1071.0 W/m2
12:10 82.2 °F /  27.9 °C 55.6 °F /  13.1 °C 29.70in /  1005.6hPa NE 8.1mph /  13km/h 9.0mph /  14.5km/h 40% 0.00in /  0mm 1069.0 W/m2
12:15 82.6 °F /  28.1 °C 55.8 °F /  13.2 °C 29.70in /  1005.6hPa NNE 6.0mph /  9.7km/h 12.0mph /  19.3km/h 40% 0.00in /  0mm 1092.0 W/m2
12:20 82.6 °F /  28.1 °C 55.0 °F /  12.8 °C 29.70in /  1005.6hPa Calm   8.0mph /  12.9km/h 39% 0.00in /  0mm 1106.0 W/m2
12:26 82.8 °F /  28.2 °C 54.5 °F /  12.5 °C 29.70in /  1005.6hPa NE 0.9mph /  1.4km/h 11.0mph /  17.7km/h 38% 0.00in /  0mm 1114.0 W/m2
12:31 83.1 °F /  28.4 °C 55.6 °F /  13.1 °C 29.69in /  1005.3hPa NE 4.0mph /  6.4km/h 9.0mph /  14.5km/h 39% 0.00in /  0mm 1167.0 W/m2
12:36 83.5 °F /  28.6 °C 55.2 °F /  12.9 °C 29.69in /  1005.3hPa ENE 4.0mph /  6.4km/h 8.0mph /  12.9km/h 38% 0.00in /  0mm 1183.0 W/m2
12:41 83.5 °F /  28.6 °C 55.2 °F /  12.9 °C 29.69in /  1005.3hPa NNE 2.9mph /  4.7km/h 6.0mph /  9.7km/h 38% 0.00in /  0mm 1153.0 W/m2
12:46 83.5 °F /  28.6 °C 55.2 °F /  12.9 °C 29.68in /  1005hPa SE 4.0mph /  6.4km/h 7.0mph /  11.3km/h 38% 0.00in /  0mm 981.0 W/m2
12:51 83.5 °F /  28.6 °C 55.9 °F /  13.3 °C 29.68in /  1005hPa Calm   6.0mph /  9.7km/h 39% 0.00in /  0mm 1245.0 W/m2
12:56 83.5 °F /  28.6 °C 55.2 °F /  12.9 °C 29.68in /  1005hPa NE 0.9mph /  1.4km/h 8.0mph /  12.9km/h 38% 0.00in /  0mm 251.0 W/m2
13:01 83.1 °F /  28.4 °C 54.1 °F /  12.3 °C 29.67in /  1004.6hPa East 2.9mph /  4.7km/h 6.0mph /  9.7km/h 37% 0.00in /  0mm 283.0 W/m2
13:06 82.8 °F /  28.2 °C 55.2 °F /  12.9 °C 29.68in /  1005hPa ESE 2.9mph /  4.7km/h 10.0mph /  16.1km/h 39% 0.00in /  0mm 260.0 W/m2
13:11 81.9 °F /  27.7 °C 54.5 °F /  12.5 °C 29.67in /  1004.6hPa NE 6.9mph /  11.1km/h 8.0mph /  12.9km/h 39% 0.00in /  0mm 288.0 W/m2
13:17 81.1 °F /  27.3 °C 54.5 °F /  12.5 °C 29.67in /  1004.6hPa NE 2.9mph /  4.7km/h 7.0mph /  11.3km/h 40% 0.00in /  0mm 279.0 W/m2
13:22 81.0 °F /  27.2 °C 55.0 °F /  12.8 °C 29.67in /  1004.6hPa SSE 0.9mph /  1.4km/h 8.0mph /  12.9km/h 41% 0.00in /  0mm 283.0 W/m2
13:27 80.8 °F /  27.1 °C 54.9 °F /  12.7 °C 29.66in /  1004.3hPa NE 6.9mph /  11.1km/h 8.0mph /  12.9km/h 41% 0.00in /  0mm 306.0 W/m2
13:32 80.6 °F /  27 °C 53.4 °F /  11.9 °C 29.66in /  1004.3hPa NE 2.9mph /  4.7km/h 4.0mph /  6.4km/h 39% 0.00in /  0mm 316.0 W/m2
13:37 80.6 °F /  27 °C 54.0 °F /  12.2 °C 29.66in /  1004.3hPa South 2.0mph /  3.2km/h 4.0mph /  6.4km/h 40% 0.00in /  0mm 315.0 W/m2
13:42 80.4 °F /  26.9 °C 53.2 °F /  11.8 °C 29.66in /  1004.3hPa Calm   4.0mph /  6.4km/h 39% 0.00in /  0mm 192.0 W/m2
13:47 80.2 °F /  26.8 °C 52.3 °F /  11.3 °C 29.66in /  1004.3hPa WSW 0.9mph /  1.4km/h 6.0mph /  9.7km/h 38% 0.00in /  0mm 153.0 W/m2
13:53 78.3 °F /  25.7 °C 56.3 °F /  13.5 °C 29.66in /  1004.3hPa West 4.9mph /  7.9km/h 8.0mph /  12.9km/h 47% 0.00in /  0mm 123.0 W/m2
13:58 76.5 °F /  24.7 °C 56.5 °F /  13.6 °C 29.65in /  1003.9hPa Calm   4.0mph /  6.4km/h 50% 0.00in /  0mm 109.0 W/m2
14:04 75.7 °F /  24.3 °C 56.8 °F /  13.8 °C 29.65in /  1003.9hPa WSW 2.0mph /  3.2km/h 6.0mph /  9.7km/h 52% 0.00in /  0mm 98.0 W/m2
14:09 75.0 °F /  23.9 °C 58.3 °F /  14.6 °C 29.65in /  1003.9hPa SSW 4.0mph /  6.4km/h 8.0mph /  12.9km/h 56% 0.00in /  0mm 67.0 W/m2
14:14 74.3 °F /  23.5 °C 59.9 °F /  15.5 °C 29.65in /  1003.9hPa Calm   8.0mph /  12.9km/h 61% 0.00in /  0mm 77.0 W/m2
14:19 73.6 °F /  23.1 °C 59.4 °F /  15.2 °C 29.65in /  1003.9hPa SW 4.0mph /  6.4km/h 7.0mph /  11.3km/h 61% 0.01in /  0.25mm 102.0 W/m2
14:24 72.9 °F /  22.7 °C 59.9 °F /  15.5 °C 29.65in /  1003.9hPa SW 2.0mph /  3.2km/h 7.0mph /  11.3km/h 64% 0.01in /  0.25mm 102.0 W/m2
14:29 72.0 °F /  22.2 °C 60.8 °F /  16 °C 29.65in /  1003.9hPa SSW 2.9mph /  4.7km/h 6.0mph /  9.7km/h 68% 0.02in /  0.51mm 98.0 W/m2
14:34 70.9 °F /  21.6 °C 60.6 °F /  15.9 °C 29.65in /  1003.9hPa SW 6.0mph /  9.7km/h 8.0mph /  12.9km/h 70% 0.02in /  0.51mm 65.0 W/m2
14:39 69.6 °F /  20.9 °C 60.3 °F /  15.7 °C 29.65in /  1003.9hPa WSW 4.9mph /  7.9km/h 6.0mph /  9.7km/h 72% 0.03in /  0.76mm 49.0 W/m2
14:44 68.5 °F /  20.3 °C 60.6 °F /  15.9 °C 29.65in /  1003.9hPa SSW 4.9mph /  7.9km/h 10.0mph /  16.1km/h 76% 0.06in /  1.52mm 46.0 W/m2
14:49 67.1 °F /  19.5 °C 59.4 °F /  15.2 °C 29.64in /  1003.6hPa South 4.0mph /  6.4km/h 8.0mph /  12.9km/h 76% 0.13in /  3.3mm 51.0 W/m2
14:54 65.7 °F /  18.7 °C 59.0 °F /  15 °C 29.64in /  1003.6hPa SW 4.9mph /  7.9km/h 7.0mph /  11.3km/h 79% 0.14in /  3.56mm 58.0 W/m2
15:00 64.8 °F /  18.2 °C 58.5 °F /  14.7 °C 29.65in /  1003.9hPa South 0.9mph /  1.4km/h 7.0mph /  11.3km/h 80% 0.19in /  4.83mm 77.0 W/m2
15:05 64.6 °F /  18.1 °C 59.4 °F /  15.2 °C 29.65in /  1003.9hPa SSW 0.9mph /  1.4km/h 4.0mph /  6.4km/h 83% 0.20in /  5.08mm 77.0 W/m2
15:11 64.2 °F /  17.9 °C 59.0 °F /  15 °C 29.65in /  1003.9hPa West 2.9mph /  4.7km/h 6.0mph /  9.7km/h 83% 0.22in /  5.59mm 69.0 W/m2
15:16 64.2 °F /  17.9 °C 59.4 °F /  15.2 °C 29.64in /  1003.6hPa Calm   4.0mph /  6.4km/h 84% 0.21in /  5.33mm 98.0 W/m2
15:21 64.2 °F /  17.9 °C 60.3 °F /  15.7 °C 29.65in /  1003.9hPa NE 2.9mph /  4.7km/h 6.0mph /  9.7km/h 87% 0.21in /  5.33mm 123.0 W/m2
15:26 64.2 °F /  17.9 °C 60.3 °F /  15.7 °C 29.65in /  1003.9hPa NNW 0.9mph /  1.4km/h 5.0mph /  8km/h 87% 0.21in /  5.33mm 114.0 W/m2
15:31 64.2 °F /  17.9 °C 60.3 °F /  15.7 °C 29.66in /  1004.3hPa NNW 4.0mph /  6.4km/h 6.0mph /  9.7km/h 87% 0.20in /  5.08mm 84.0 W/m2
15:36 64.2 °F /  17.9 °C 60.6 °F /  15.9 °C 29.66in /  1004.3hPa NE 2.0mph /  3.2km/h 3.0mph /  4.8km/h 88% 0.20in /  5.08mm 90.0 W/m2
15:41 64.4 °F /  18 °C 61.2 °F /  16.2 °C 29.66in /  1004.3hPa East 2.9mph /  4.7km/h 9.0mph /  14.5km/h 89% 0.19in /  4.83mm 109.0 W/m2
15:46 64.4 °F /  18 °C 61.2 °F /  16.2 °C 29.67in /  1004.6hPa ENE 4.0mph /  6.4km/h 8.0mph /  12.9km/h 89% 0.15in /  3.81mm 130.0 W/m2
15:52 64.2 °F /  17.9 °C 60.3 °F /  15.7 °C 29.67in /  1004.6hPa ENE 8.1mph /  13km/h 10.0mph /  16.1km/h 87% 0.11in /  2.79mm 139.0 W/m2
15:57 64.0 °F /  17.8 °C 60.4 °F /  15.8 °C 29.67in /  1004.6hPa ENE 4.9mph /  7.9km/h 6.0mph /  9.7km/h 88% 0.08in /  2.03mm 109.0 W/m2
16:02 64.0 °F /  17.8 °C 60.8 °F /  16 °C 29.67in /  1004.6hPa East 2.0mph /  3.2km/h 6.0mph /  9.7km/h 89% 0.06in /  1.52mm 63.0 W/m2
16:07 63.9 °F /  17.7 °C 60.6 °F /  15.9 °C 29.67in /  1004.6hPa SE 2.9mph /  4.7km/h 7.0mph /  11.3km/h 89% 0.04in /  1.02mm 44.0 W/m2
16:12 63.9 °F /  17.7 °C 60.8 °F /  16 °C 29.67in /  1004.6hPa SE 0.9mph /  1.4km/h 8.0mph /  12.9km/h 90% 0.04in /  1.02mm 39.0 W/m2
16:17 63.7 °F /  17.6 °C 60.4 °F /  15.8 °C 29.67in /  1004.6hPa ESE 4.0mph /  6.4km/h 8.0mph /  12.9km/h 89% 0.04in /  1.02mm 40.0 W/m2
16:22 63.3 °F /  17.4 °C 59.7 °F /  15.4 °C 29.67in /  1004.6hPa ENE 2.0mph /  3.2km/h 10.0mph /  16.1km/h 88% 0.05in /  1.27mm 58.0 W/m2
16:27 63.1 °F /  17.3 °C 59.9 °F /  15.5 °C 29.68in /  1005hPa NE 2.9mph /  4.7km/h 7.0mph /  11.3km/h 89% 0.06in /  1.52mm 91.0 W/m2
16:33 63.1 °F /  17.3 °C 59.9 °F /  15.5 °C 29.69in /  1005.3hPa SSE 0.9mph /  1.4km/h 6.0mph /  9.7km/h 89% 0.06in /  1.52mm 86.0 W/m2
16:38 63.0 °F /  17.2 °C 59.7 °F /  15.4 °C 29.69in /  1005.3hPa ENE 2.0mph /  3.2km/h 7.0mph /  11.3km/h 89% 0.06in /  1.52mm 111.0 W/m2
16:43 63.0 °F /  17.2 °C 59.7 °F /  15.4 °C 29.69in /  1005.3hPa Calm   6.0mph /  9.7km/h 89% 0.06in /  1.52mm 102.0 W/m2
16:48 63.0 °F /  17.2 °C 59.7 °F /  15.4 °C 29.69in /  1005.3hPa East 4.9mph /  7.9km/h 5.0mph /  8km/h 89% 0.06in /  1.52mm 105.0 W/m2
16:53 62.8 °F /  17.1 °C 59.5 °F /  15.3 °C 29.69in /  1005.3hPa ENE 4.0mph /  6.4km/h 5.0mph /  8km/h 89% 0.05in /  1.27mm 111.0 W/m2
16:58 63.0 °F /  17.2 °C 59.7 °F /  15.4 °C 29.69in /  1005.3hPa NE 6.9mph /  11.1km/h 7.0mph /  11.3km/h 89% 0.04in /  1.02mm 111.0 W/m2
17:03 63.0 °F /  17.2 °C 59.7 °F /  15.4 °C 29.68in /  1005hPa NNE 2.9mph /  4.7km/h 7.0mph /  11.3km/h 89% 0.04in /  1.02mm 120.0 W/m2
17:08 62.8 °F /  17.1 °C 59.2 °F /  15.1 °C 29.68in /  1005hPa SE 0.9mph /  1.4km/h 6.0mph /  9.7km/h 88% 0.03in /  0.76mm 123.0 W/m2
17:13 63.0 °F /  17.2 °C 59.4 °F /  15.2 °C 29.68in /  1005hPa Calm   8.0mph /  12.9km/h 88% 0.03in /  0.76mm 114.0 W/m2
17:19 63.0 °F /  17.2 °C 59.7 °F /  15.4 °C 29.68in /  1005hPa ENE 4.9mph /  7.9km/h 7.0mph /  11.3km/h 89% 0.03in /  0.76mm 109.0 W/m2
17:24 63.0 °F /  17.2 °C 59.7 °F /  15.4 °C 29.68in /  1005hPa Calm   6.0mph /  9.7km/h 89% 0.02in /  0.51mm 105.0 W/m2
17:29 63.1 °F /  17.3 °C 60.1 °F /  15.6 °C 29.68in /  1005hPa ENE 0.9mph /  1.4km/h 4.0mph /  6.4km/h 90% 0.02in /  0.51mm 95.0 W/m2
17:34 63.1 °F /  17.3 °C 60.1 °F /  15.6 °C 29.69in /  1005.3hPa ESE 6.0mph /  9.7km/h 7.0mph /  11.3km/h 90% 0.01in /  0.25mm 74.0 W/m2
17:39 63.3 °F /  17.4 °C 60.1 °F /  15.6 °C 29.69in /  1005.3hPa ESE 0.9mph /  1.4km/h 4.0mph /  6.4km/h 89% 0.01in /  0.25mm 70.0 W/m2
17:44 63.3 °F /  17.4 °C 59.7 °F /  15.4 °C 29.69in /  1005.3hPa ESE 2.9mph /  4.7km/h 4.0mph /  6.4km/h 88% 0.00in /  0mm 90.0 W/m2
17:49 63.3 °F /  17.4 °C 59.7 °F /  15.4 °C 29.69in /  1005.3hPa ESE 2.9mph /  4.7km/h 7.0mph /  11.3km/h 88% 0.00in /  0mm 135.0 W/m2
17:54 63.3 °F /  17.4 °C 59.7 °F /  15.4 °C 29.69in /  1005.3hPa Calm   3.0mph /  4.8km/h 88% 0.00in /  0mm 202.0 W/m2
17:59 63.7 °F /  17.6 °C 60.1 °F /  15.6 °C 29.69in /  1005.3hPa Calm   5.0mph /  8km/h 88% 0.00in /  0mm 192.0 W/m2
18:05 63.9 °F /  17.7 °C 60.3 °F /  15.7 °C 29.69in /  1005.3hPa Calm   5.0mph /  8km/h 88% 0.00in /  0mm 155.0 W/m2
18:10 64.2 °F /  17.9 °C 60.6 °F /  15.9 °C 29.69in /  1005.3hPa ENE 0.9mph /  1.4km/h 4.0mph /  6.4km/h 88% 0.00in /  0mm 125.0 W/m2
18:15 64.2 °F /  17.9 °C 59.9 °F /  15.5 °C 29.69in /  1005.3hPa NE 0.9mph /  1.4km/h 4.0mph /  6.4km/h 86% 0.00in /  0mm 120.0 W/m2
18:20 64.6 °F /  18.1 °C 60.3 °F /  15.7 °C 29.69in /  1005.3hPa Calm   3.0mph /  4.8km/h 86% 0.00in /  0mm 178.0 W/m2
18:25 64.8 °F /  18.2 °C 60.4 °F /  15.8 °C 29.70in /  1005.6hPa Calm   2.0mph /  3.2km/h 86% 0.00in /  0mm 195.0 W/m2
18:30 65.1 °F /  18.4 °C 60.8 °F /  16 °C 29.70in /  1005.6hPa South 0.9mph /  1.4km/h 1.0mph /  1.6km/h 86% 0.00in /  0mm 100.0 W/m2
18:35 65.5 °F /  18.6 °C 60.4 °F /  15.8 °C 29.70in /  1005.6hPa Calm   1.0mph /  1.6km/h 84% 0.00in /  0mm 93.0 W/m2
18:40 65.5 °F /  18.6 °C 60.3 °F /  15.7 °C 29.70in /  1005.6hPa Calm   2.0mph /  3.2km/h 83% 0.00in /  0mm 69.0 W/m2
18:45 65.3 °F /  18.5 °C 60.1 °F /  15.6 °C 29.70in /  1005.6hPa Calm   3.0mph /  4.8km/h 83% 0.00in /  0mm 47.0 W/m2
18:51 65.1 °F /  18.4 °C 59.9 °F /  15.5 °C 29.70in /  1005.6hPa NNE 0.9mph /  1.4km/h 2.0mph /  3.2km/h 83% 0.00in /  0mm 40.0 W/m2
18:56 64.9 °F /  18.3 °C 59.7 °F /  15.4 °C 29.71in /  1006hPa Calm   4.0mph /  6.4km/h 83% 0.00in /  0mm 26.0 W/m2
19:01 64.9 °F /  18.3 °C 59.4 °F /  15.2 °C 29.71in /  1006hPa Calm   3.0mph /  4.8km/h 82% 0.00in /  0mm 18.0 W/m2
19:06 64.8 °F /  18.2 °C 59.9 °F /  15.5 °C 29.72in /  1006.3hPa Calm     84% 0.00in /  0mm 12.0 W/m2
19:11 64.8 °F /  18.2 °C 60.1 °F /  15.6 °C 29.72in /  1006.3hPa Calm   1.0mph /  1.6km/h 85% 0.00in /  0mm 7.0 W/m2
19:16 64.6 °F /  18.1 °C 59.7 °F /  15.4 °C 29.72in /  1006.3hPa Calm   1.0mph /  1.6km/h 84% 0.00in /  0mm 5.0 W/m2
19:21 64.6 °F /  18.1 °C 59.9 °F /  15.5 °C 29.72in /  1006.3hPa Calm     85% 0.00in /  0mm 0.0 W/m2
19:26 64.6 °F /  18.1 °C 60.3 °F /  15.7 °C 29.73in /  1006.7hPa Calm   2.0mph /  3.2km/h 86% 0.00in /  0mm 0.0 W/m2
19:31 64.6 °F /  18.1 °C 60.3 °F /  15.7 °C 29.73in /  1006.7hPa Calm     86% 0.00in /  0mm 0.0 W/m2
19:36 64.6 °F /  18.1 °C 60.3 °F /  15.7 °C 29.74in /  1007hPa NW 0.9mph /  1.4km/h 3.0mph /  4.8km/h 86% 0.00in /  0mm 0.0 W/m2
19:42 64.2 °F /  17.9 °C 59.4 °F /  15.2 °C 29.74in /  1007hPa Calm   3.0mph /  4.8km/h 84% 0.00in /  0mm 0.0 W/m2
19:47 64.0 °F /  17.8 °C 59.4 °F /  15.2 °C 29.74in /  1007hPa NNW 0.9mph /  1.4km/h 2.0mph /  3.2km/h 85% 0.00in /  0mm 0.0 W/m2
19:52 64.0 °F /  17.8 °C 59.7 °F /  15.4 °C 29.75in /  1007.3hPa NNW 2.0mph /  3.2km/h 3.0mph /  4.8km/h 86% 0.00in /  0mm 0.0 W/m2
19:57 63.9 °F /  17.7 °C 59.5 °F /  15.3 °C 29.75in /  1007.3hPa North 0.9mph /  1.4km/h 2.0mph /  3.2km/h 86% 0.00in /  0mm 0.0 W/m2
20:02 63.7 °F /  17.6 °C 59.4 °F /  15.2 °C 29.75in /  1007.3hPa NNE 0.9mph /  1.4km/h 4.0mph /  6.4km/h 86% 0.01in /  0.25mm 0.0 W/m2
20:07 63.3 °F /  17.4 °C 59.4 °F /  15.2 °C 29.76in /  1007.7hPa North 2.9mph /  4.7km/h 5.0mph /  8km/h 87% 0.01in /  0.25mm 0.0 W/m2
20:12 63.1 °F /  17.3 °C 59.5 °F /  15.3 °C 29.77in /  1008hPa NE 0.9mph /  1.4km/h 8.0mph /  12.9km/h 88% 0.01in /  0.25mm 0.0 W/m2
20:18 63.0 °F /  17.2 °C 59.4 °F /  15.2 °C 29.77in /  1008hPa NE 2.0mph /  3.2km/h 3.0mph /  4.8km/h 88% 0.02in /  0.51mm 0.0 W/m2
20:23 62.8 °F /  17.1 °C 59.5 °F /  15.3 °C 29.77in /  1008hPa NE 0.9mph /  1.4km/h 3.0mph /  4.8km/h 89% 0.02in /  0.51mm 0.0 W/m2
20:28 62.4 °F /  16.9 °C 59.4 °F /  15.2 °C 29.78in /  1008.4hPa NNE 0.9mph /  1.4km/h 3.0mph /  4.8km/h 90% 0.02in /  0.51mm 0.0 W/m2
20:33 62.4 °F /  16.9 °C 59.4 °F /  15.2 °C 29.78in /  1008.4hPa Calm   1.0mph /  1.6km/h 90% 0.02in /  0.51mm 0.0 W/m2
20:38 62.4 °F /  16.9 °C 59.7 °F /  15.4 °C 29.78in /  1008.4hPa Calm   2.0mph /  3.2km/h 91% 0.02in /  0.51mm 0.0 W/m2
20:43 62.4 °F /  16.9 °C 59.7 °F /  15.4 °C 29.78in /  1008.4hPa Calm   2.0mph /  3.2km/h 91% 0.02in /  0.51mm 0.0 W/m2
20:48 62.4 °F /  16.9 °C 60.1 °F /  15.6 °C 29.78in /  1008.4hPa Calm   2.0mph /  3.2km/h 92% 0.02in /  0.51mm 0.0 W/m2
20:53 62.4 °F /  16.9 °C 60.1 °F /  15.6 °C 29.78in /  1008.4hPa Calm   2.0mph /  3.2km/h 92% 0.02in /  0.51mm 0.0 W/m2
20:58 62.4 °F /  16.9 °C 60.1 °F /  15.6 °C 29.78in /  1008.4hPa Calm   1.0mph /  1.6km/h 92% 0.02in /  0.51mm 0.0 W/m2
21:04 62.2 °F /  16.8 °C 59.9 °F /  15.5 °C 29.78in /  1008.4hPa Calm     92% 0.02in /  0.51mm 0.0 W/m2
21:09 62.1 °F /  16.7 °C 59.4 °F /  15.2 °C 29.78in /  1008.4hPa Calm     91% 0.02in /  0.51mm 0.0 W/m2
21:15 62.1 °F /  16.7 °C 59.4 °F /  15.2 °C 29.78in /  1008.4hPa Calm     91% 0.02in /  0.51mm 0.0 W/m2
21:20 62.1 °F /  16.7 °C 59.7 °F /  15.4 °C 29.78in /  1008.4hPa Calm     92% 0.01in /  0.25mm 0.0 W/m2
21:25 62.1 °F /  16.7 °C 59.7 °F /  15.4 °C 29.78in /  1008.4hPa Calm     92% 0.01in /  0.25mm 0.0 W/m2
21:30 62.1 °F /  16.7 °C 59.7 °F /  15.4 °C 29.79in /  1008.7hPa Calm     92% 0.01in /  0.25mm 0.0 W/m2
21:35 62.1 °F /  16.7 °C 59.7 °F /  15.4 °C 29.79in /  1008.7hPa Calm     92% 0.01in /  0.25mm 0.0 W/m2
21:40 62.2 °F /  16.8 °C 59.9 °F /  15.5 °C 29.79in /  1008.7hPa Calm     92% 0.01in /  0.25mm 0.0 W/m2
21:45 62.2 °F /  16.8 °C 59.9 °F /  15.5 °C 29.79in /  1008.7hPa Calm     92% 0.01in /  0.25mm 0.0 W/m2
21:50 62.1 °F /  16.7 °C 59.7 °F /  15.4 °C 29.79in /  1008.7hPa Calm     92% 0.00in /  0mm 0.0 W/m2
21:56 62.1 °F /  16.7 °C 59.7 °F /  15.4 °C 29.79in /  1008.7hPa Calm     92% 0.00in /  0mm 0.0 W/m2
22:01 62.1 °F /  16.7 °C 59.7 °F /  15.4 °C 29.79in /  1008.7hPa Calm     92% 0.01in /  0.25mm 0.0 W/m2
22:06 62.1 °F /  16.7 °C 59.7 °F /  15.4 °C 29.80in /  1009hPa Calm     92% 0.01in /  0.25mm 0.0 W/m2
22:11 62.1 °F /  16.7 °C 59.7 °F /  15.4 °C 29.80in /  1009hPa Calm     92% 0.01in /  0.25mm 0.0 W/m2
22:16 62.1 °F /  16.7 °C 59.7 °F /  15.4 °C 29.80in /  1009hPa Calm     92% 0.01in /  0.25mm 0.0 W/m2
22:21 62.1 °F /  16.7 °C 59.7 °F /  15.4 °C 29.80in /  1009hPa Calm     92% 0.01in /  0.25mm 0.0 W/m2
22:26 62.1 °F /  16.7 °C 59.7 °F /  15.4 °C 29.80in /  1009hPa Calm     92% 0.01in /  0.25mm 0.0 W/m2
22:31 62.1 °F /  16.7 °C 59.7 °F /  15.4 °C 29.80in /  1009hPa Calm     92% 0.01in /  0.25mm 0.0 W/m2
22:36 62.1 °F /  16.7 °C 60.1 °F /  15.6 °C 29.79in /  1008.7hPa Calm     93% 0.01in /  0.25mm 0.0 W/m2
22:41 62.1 °F /  16.7 °C 60.1 °F /  15.6 °C 29.80in /  1009hPa Calm     93% 0.01in /  0.25mm 0.0 W/m2
22:47 62.2 °F /  16.8 °C 60.3 °F /  15.7 °C 29.80in /  1009hPa Calm     93% 0.01in /  0.25mm 0.0 W/m2
22:53 62.1 °F /  16.7 °C 60.1 °F /  15.6 °C 29.79in /  1008.7hPa Calm     93% 0.01in /  0.25mm 0.0 W/m2
22:58 62.1 °F /  16.7 °C 60.1 °F /  15.6 °C 29.79in /  1008.7hPa Calm     93% 0.01in /  0.25mm 0.0 W/m2
23:03 62.2 °F /  16.8 °C 60.3 °F /  15.7 °C 29.79in /  1008.7hPa Calm     93% 0.01in /  0.25mm 0.0 W/m2
23:08 62.2 °F /  16.8 °C 60.3 °F /  15.7 °C 29.78in /  1008.4hPa Calm     93% 0.01in /  0.25mm 0.0 W/m2
23:16 62.2 °F /  16.8 °C 60.3 °F /  15.7 °C 29.79in /  1008.7hPa ESE 0.9mph /  1.4km/h 1.0mph /  1.6km/h 93% 0.01in /  0.25mm 0.0 W/m2
23:21 62.2 °F /  16.8 °C 60.3 °F /  15.7 °C 29.79in /  1008.7hPa Calm   3.0mph /  4.8km/h 93% 0.01in /  0.25mm 0.0 W/m2
23:27 62.2 °F /  16.8 °C 60.3 °F /  15.7 °C 29.79in /  1008.7hPa Calm   1.0mph /  1.6km/h 93% 0.01in /  0.25mm 0.0 W/m2
23:32 62.2 °F /  16.8 °C 60.3 °F /  15.7 °C 29.79in /  1008.7hPa SSW 0.9mph /  1.4km/h 3.0mph /  4.8km/h 93% 0.01in /  0.25mm 0.0 W/m2
23:37 62.2 °F /  16.8 °C 60.3 °F /  15.7 °C 29.79in /  1008.7hPa SSW 0.9mph /  1.4km/h 2.0mph /  3.2km/h 93% 0.01in /  0.25mm 0.0 W/m2
23:43 62.2 °F /  16.8 °C 60.3 °F /  15.7 °C 29.79in /  1008.7hPa Calm   2.0mph /  3.2km/h 93% 0.01in /  0.25mm 0.0 W/m2
23:48 62.2 °F /  16.8 °C 60.3 °F /  15.7 °C 29.79in /  1008.7hPa Calm   1.0mph /  1.6km/h 93% 0.01in /  0.25mm 0.0 W/m2
23:53 62.2 °F /  16.8 °C 60.3 °F /  15.7 °C 29.79in /  1008.7hPa Calm     93% 0.01in /  0.25mm 0.0 W/m2
23:58 62.4 °F /  16.9 °C 60.4 °F /  15.8 °C 29.78in /  1008.4hPa South 0.9mph /  1.4km/h 3.0mph /  4.8km/h 93% 0.00in /  0mm 0.0 W/m2
Olympia, Windhoek, Namibia
Compliments of Weather Underground - 3.25 mb